Nearby METAR Reports

 

LEAL - Alicante/El Alte, Spain
Distance from station: SO 52km
Actualización: 18/08/2017 03:00
Few Clouds
Few Clouds
 Viento del O
Viento: O 6 km/h
Temperatura: 24°C
Rocío: 22°C
Humedad: 89%
Barómetro: 1017 hPa
Clouds: Few Clouds
Visibility: 10 km
Cloud details: Few Clouds 366 m
2017/08/18 01:00 LEAL 180100Z 28003KT 9999 FEW012 24/22 Q1017 NOSIG
LEVC - Valencia (civ/Mi, Spain
Distance from station: NNO 107km
Actualización: 18/08/2017 03:00
Despejado
Despejado
 Viento del varies
Viento: varies 4 km/h
Temperatura: 25°C
Rocío: 22°C
Humedad: 83%
Barómetro: 1018 hPa
Resumen: Despejado
Visibility: greater than 10 km
2017/08/18 01:00 LEVC 180100Z VRB02KT CAVOK 25/22 Q1018 NOSIG
 
LELC - San Javier(Mil/C, Spain
Distance from station: SO 109km
Actualización: 17/08/2017 23:00
NOT Current
Parcialmente nuboso
Parcialmente nuboso
 Viento del NE
Viento: NE 6 km/h
Temperatura: 26°C
Rocío: 23°C
Humedad: 84%
Barómetro: 1018 hPa
Clouds: Parcialmente nuboso
Visibility: 10 km
Cloud details: Parcialmente nuboso 305 m
2017/08/17 21:00 LELC 172100Z 05003KT 9999 SCT010 26/23 Q1018 NOSIG
LERI - Alcantarilla(Sp-, Spain
Distance from station: SO 120km
Actualización: 17/08/2017 20:00
NOT Current
Despejado
Despejado
 Viento del SE
Viento: SE 17 km/h
Temperatura: 31°C
Heat Index: 33°C
Rocío: 19°C
Humedad: 49%
Barómetro: 1016 hPa
Resumen: Despejado
Visibility: greater than 10 km
2017/08/17 18:00 LERI 171800Z 14009KT CAVOK 31/19 Q1016 NOSIG
 
LEIB - Ibiza/Es Codola, Spain
Distance from station: ENE 131km
Actualización: 18/08/2017 03:00
Few Clouds
Few Clouds
 Viento del ENE
Viento: ENE 6 km/h
Temperatura: 25°C
Rocío: 23°C
Humedad: 89%
Barómetro: 1017 hPa
Clouds: Few Clouds
Visibility: 10 km
Cloud details: Few Clouds 366 m
2017/08/18 01:00 LEIB 180100Z 07003KT 9999 FEW012 25/23 Q1017 NOSIG
LEAB - Albacete (civ/Mi, Spain
Distance from station: ONO 157km
Actualización: 18/08/2017 03:00
Despejado
Despejado
 Viento del SSE
Viento: SSE 15 km/h
Temperatura: 23°C
Rocío: 13°C
Humedad: 53%
Barómetro: 1020 hPa
Resumen: Despejado
Visibility: greater than 10 km
2017/08/18 01:00 LEAB 180100Z 16008KT CAVOK 23/13 Q1020 NOSIG